createdAt,value
2022-08-02T00:01:43.058Z,0.20
2022-08-02T00:05:05.886Z,0.40
2022-08-02T00:08:28.197Z,0.35
2022-08-02T00:11:50.564Z,0.50
2022-08-02T00:15:16.169Z,0.43
2022-08-02T00:18:38.735Z,0.30
2022-08-02T00:22:03.424Z,0.43
2022-08-02T00:25:25.726Z,0.45
2022-08-02T00:28:48.196Z,0.65
2022-08-02T00:32:10.933Z,0.40
2022-08-02T00:35:33.453Z,0.40
2022-08-02T00:38:55.665Z,0.47
2022-08-02T00:42:17.885Z,0.40
2022-08-02T00:46:02.570Z,0.40
2022-08-02T00:49:24.178Z,0.45
2022-08-02T00:52:46.690Z,0.50
2022-08-02T00:56:09.137Z,0.60
2022-08-02T00:59:31.769Z,0.90
2022-08-02T01:02:54.050Z,1.17
2022-08-02T01:06:16.934Z,1.08
2022-08-02T01:09:39.127Z,0.70
2022-08-02T01:13:01.574Z,0.50
2022-08-02T01:16:26.565Z,0.65
2022-08-02T01:23:56.497Z,0.70
2022-08-02T01:27:33.551Z,0.60
2022-08-02T01:31:44.717Z,0.70
2022-08-02T01:35:14.918Z,0.57
2022-08-02T01:38:41.915Z,0.40
2022-08-02T01:42:05.286Z,0.50
2022-08-02T01:45:33.031Z,0.52
2022-08-02T01:48:58.004Z,0.60
2022-08-02T01:52:23.968Z,0.50
2022-08-02T01:55:58.460Z,0.70
2022-08-02T01:59:23.050Z,0.60
2022-08-02T02:02:49.242Z,0.60
2022-08-02T02:09:49.255Z,0.70
2022-08-02T02:13:16.958Z,0.88
2022-08-02T02:16:42.289Z,0.63
2022-08-02T02:20:06.417Z,0.70
2022-08-02T02:23:30.166Z,1.50
2022-08-02T02:27:01.991Z,1.15
2022-08-02T02:30:27.128Z,1.27
2022-08-02T02:34:02.841Z,1.20
2022-08-02T02:37:28.075Z,0.88
2022-08-02T02:40:51.726Z,0.85
2022-08-02T02:44:17.354Z,0.95
2022-08-02T02:47:41.801Z,0.75
2022-08-02T02:51:05.997Z,0.70
2022-08-02T02:54:35.386Z,0.60
2022-08-02T02:57:58.795Z,0.77
2022-08-02T03:01:55.971Z,0.57
2022-08-02T03:05:13.030Z,0.60
2022-08-02T03:08:35.474Z,0.57
2022-08-02T03:11:59.374Z,0.70
2022-08-02T03:15:22.097Z,0.90
2022-08-02T03:18:44.635Z,0.68
2022-08-02T03:22:06.871Z,0.60
2022-08-02T03:25:29.236Z,0.32
2022-08-02T03:28:51.492Z,0.50
2022-08-02T03:32:14.074Z,0.90
2022-08-02T03:35:37.327Z,0.63
2022-08-02T03:39:01.581Z,0.80
2022-08-02T03:42:25.434Z,1.00
2022-08-02T03:45:49.137Z,0.70
2022-08-02T03:49:14.401Z,1.00
2022-08-02T03:52:37.266Z,0.85
2022-08-02T03:56:00.403Z,0.80
2022-08-02T03:59:22.733Z,0.80
2022-08-02T04:02:44.988Z,0.80
2022-08-02T04:06:07.162Z,0.90
2022-08-02T04:09:29.511Z,0.90
2022-08-02T04:12:52.358Z,0.93
2022-08-02T04:16:20.757Z,0.90
2022-08-02T04:19:48.894Z,0.90
2022-08-02T04:23:14.371Z,0.80
2022-08-02T04:26:37.398Z,0.77
2022-08-02T04:30:05.011Z,1.00
2022-08-02T04:33:27.431Z,0.73
2022-08-02T04:36:50.523Z,0.70
2022-08-02T04:40:13.029Z,0.90
2022-08-02T04:43:35.266Z,1.00
2022-08-02T04:47:01.749Z,1.25
2022-08-02T04:50:28.366Z,0.82
2022-08-02T04:53:50.548Z,0.82
2022-08-02T04:57:31.318Z,0.77
2022-08-02T05:00:53.518Z,0.80
2022-08-02T05:04:15.883Z,0.75
2022-08-02T05:07:38.106Z,1.00
2022-08-02T05:11:00.316Z,0.90
2022-08-02T05:14:23.036Z,0.98
2022-08-02T05:17:48.413Z,0.60
2022-08-02T05:21:11.028Z,0.68
2022-08-02T05:24:33.297Z,0.95
2022-08-02T05:27:55.515Z,0.75
2022-08-02T05:31:17.710Z,0.70
2022-08-02T05:34:39.990Z,0.70
2022-08-02T05:38:02.228Z,1.02
2022-08-02T05:41:25.175Z,0.95
2022-08-02T05:44:47.401Z,0.90
2022-08-02T05:48:09.776Z,0.88
2022-08-02T05:51:36.636Z,1.38
2022-08-02T05:55:16.871Z,1.10
2022-08-02T05:59:17.776Z,1.23
2022-08-02T06:02:43.123Z,1.20
2022-08-02T06:06:11.214Z,1.30
2022-08-02T06:09:34.781Z,1.10
2022-08-02T06:13:14.808Z,1.30
2022-08-02T06:16:42.475Z,0.90
2022-08-02T06:20:05.441Z,1.20
2022-08-02T06:23:29.060Z,1.48
2022-08-02T06:26:55.042Z,1.08
2022-08-02T06:30:17.249Z,0.80
2022-08-02T06:33:39.713Z,1.40
2022-08-02T06:37:07.723Z,1.40
2022-08-02T06:40:38.450Z,1.15
2022-08-02T06:44:27.354Z,1.20
2022-08-02T06:47:46.086Z,0.90
2022-08-02T06:51:08.648Z,0.90
2022-08-02T06:54:30.878Z,1.08
2022-08-02T06:57:53.823Z,0.90
2022-08-02T07:01:18.115Z,1.00
2022-08-02T07:04:40.399Z,1.30
2022-08-02T07:08:03.402Z,0.77
2022-08-02T07:11:25.795Z,1.13
2022-08-02T07:14:48.185Z,0.50
2022-08-02T07:18:15.689Z,0.85
2022-08-02T07:21:59.266Z,0.68
2022-08-02T07:25:20.513Z,1.10
2022-08-02T07:28:42.791Z,1.27
2022-08-02T07:32:05.390Z,0.80
2022-08-02T07:35:28.026Z,0.77
2022-08-02T07:38:53.300Z,0.80
2022-08-02T07:42:15.601Z,0.88
2022-08-02T07:45:45.558Z,1.13
2022-08-02T07:49:19.478Z,0.70
2022-08-02T07:52:42.693Z,1.02
2022-08-02T07:56:05.113Z,0.98
2022-08-02T07:59:27.569Z,0.90
2022-08-02T08:02:49.723Z,0.50
2022-08-02T08:06:12.817Z,0.50
2022-08-02T08:09:39.840Z,1.05
2022-08-02T08:13:02.113Z,0.50
2022-08-02T08:16:26.227Z,0.45
2022-08-02T08:19:51.294Z,0.33
2022-08-02T08:23:14.792Z,0.60
2022-08-02T08:26:37.038Z,0.50
2022-08-02T08:29:59.372Z,0.52
2022-08-02T08:33:21.599Z,0.50
2022-08-02T08:36:44.041Z,0.40
2022-08-02T08:40:10.893Z,0.38
2022-08-02T08:43:33.134Z,0.50
2022-08-02T08:46:56.891Z,0.52
2022-08-02T08:50:26.213Z,1.48
2022-08-02T08:53:49.880Z,0.95
2022-08-02T08:57:12.804Z,0.60
2022-08-02T09:00:37.297Z,0.70
2022-08-02T09:03:59.563Z,0.60
2022-08-02T09:07:22.126Z,0.75
2022-08-02T09:10:46.435Z,0.80
2022-08-02T09:14:08.683Z,0.65
2022-08-02T09:17:31.055Z,0.60
2022-08-02T09:20:59.027Z,0.50
2022-08-02T09:24:23.391Z,0.63
2022-08-02T09:27:49.063Z,0.63
2022-08-02T09:31:18.309Z,0.60
2022-08-02T09:34:45.419Z,0.70
2022-08-02T09:38:13.173Z,0.50
2022-08-02T09:41:38.130Z,0.40
2022-08-02T09:48:23.482Z,0.73
2022-08-02T09:51:46.633Z,0.82
2022-08-02T09:55:11.318Z,0.80
2022-08-02T09:58:39.363Z,0.63
2022-08-02T10:02:09.267Z,0.70
2022-08-02T10:06:08.861Z,0.70
2022-08-02T10:09:31.379Z,0.50
2022-08-02T10:12:53.739Z,0.70
2022-08-02T10:16:17.862Z,0.63
2022-08-02T10:20:02.124Z,1.00
2022-08-02T10:23:25.142Z,3.05
2022-08-02T10:26:48.447Z,3.50
2022-08-02T10:30:11.352Z,4.03
2022-08-02T10:33:36.449Z,4.68
2022-08-02T10:37:02.895Z,2.03
2022-08-02T10:40:26.816Z,2.45
2022-08-02T10:43:49.361Z,1.65
2022-08-02T10:47:15.100Z,1.98
2022-08-02T10:50:46.613Z,1.60
2022-08-02T10:54:09.519Z,1.13
2022-08-02T10:57:35.023Z,0.80
2022-08-02T11:01:17.656Z,1.17
2022-08-02T11:04:39.853Z,1.00
2022-08-02T11:08:19.470Z,1.02
2022-08-02T11:12:02.220Z,1.17
2022-08-02T11:15:24.946Z,1.38
2022-08-02T11:18:49.970Z,1.00
2022-08-02T11:22:25.146Z,0.77
2022-08-02T11:26:11.042Z,0.90
2022-08-02T11:29:42.328Z,0.90
2022-08-02T11:33:04.954Z,1.25
2022-08-02T11:36:27.439Z,0.88
2022-08-02T11:39:52.701Z,0.70
2022-08-02T11:43:24.031Z,0.77
2022-08-02T11:46:58.111Z,0.60
2022-08-02T11:50:30.104Z,0.82
2022-08-02T11:53:57.421Z,0.50
2022-08-02T11:57:22.370Z,0.80
2022-08-02T12:00:47.021Z,0.90
2022-08-02T12:04:00.842Z,0.90
2022-08-02T12:07:35.334Z,0.70
2022-08-02T12:11:01.997Z,0.85
2022-08-02T12:14:26.708Z,0.80
2022-08-02T12:18:07.607Z,0.82
2022-08-02T12:21:29.865Z,0.98
2022-08-02T12:24:54.350Z,0.70
2022-08-02T12:28:23.357Z,0.80
2022-08-02T12:31:57.152Z,0.60
2022-08-02T12:35:26.459Z,0.60
2022-08-02T12:39:00.376Z,0.80
2022-08-02T12:42:22.824Z,0.70
2022-08-02T12:45:48.893Z,0.60
2022-08-02T12:49:18.613Z,0.80
2022-08-02T12:52:41.317Z,0.80
2022-08-02T12:56:04.085Z,0.82
2022-08-02T12:59:39.206Z,0.85
2022-08-02T13:03:01.902Z,0.70
2022-08-02T13:06:42.561Z,0.60
2022-08-02T13:10:05.506Z,0.80
2022-08-02T13:13:27.905Z,0.90
2022-08-02T13:16:53.440Z,0.70
2022-08-02T13:20:15.851Z,1.20
2022-08-02T13:23:53.872Z,0.90
2022-08-02T13:27:17.130Z,0.80
2022-08-02T13:30:39.578Z,0.60
2022-08-02T13:34:01.724Z,1.42
2022-08-02T13:37:24.665Z,0.68
2022-08-02T13:41:05.449Z,0.52
2022-08-02T13:44:28.053Z,0.60
2022-08-02T13:48:03.830Z,0.63
2022-08-02T13:51:27.955Z,0.88
2022-08-02T13:54:50.287Z,0.60
2022-08-02T13:58:12.518Z,0.90
2022-08-02T14:01:34.809Z,0.68
2022-08-02T14:04:57.127Z,0.55
2022-08-02T14:08:20.828Z,0.60
2022-08-02T14:11:43.014Z,0.63
2022-08-02T14:15:05.613Z,0.70
2022-08-02T14:18:28.286Z,1.13
2022-08-02T14:21:51.581Z,0.45
2022-08-02T14:25:13.922Z,0.50
2022-08-02T14:28:37.010Z,0.60
2022-08-02T14:31:59.391Z,0.73
2022-08-02T14:35:21.581Z,0.57
2022-08-02T14:38:43.785Z,0.55
2022-08-02T14:42:07.634Z,0.52
2022-08-02T14:45:36.680Z,0.68
2022-08-02T14:49:04.213Z,0.55
2022-08-02T14:52:26.552Z,0.50
2022-08-02T14:55:50.150Z,0.60
2022-08-02T14:59:12.507Z,0.80
2022-08-02T15:02:34.682Z,0.77
2022-08-02T15:05:57.008Z,0.93
2022-08-02T15:09:20.287Z,0.80
2022-08-02T15:12:42.497Z,0.60
2022-08-02T15:16:05.235Z,0.82
2022-08-02T15:19:56.511Z,0.63
2022-08-02T15:23:10.730Z,0.70
2022-08-02T15:26:35.136Z,0.68
2022-08-02T15:30:00.360Z,1.05
2022-08-02T15:33:23.262Z,0.88
2022-08-02T15:36:45.572Z,0.60
2022-08-02T15:40:08.422Z,0.90
2022-08-02T15:43:31.034Z,0.90
2022-08-02T15:46:54.231Z,0.90
2022-08-02T15:50:16.530Z,0.77
2022-08-02T15:53:38.764Z,0.80
2022-08-02T15:57:01.027Z,0.70
2022-08-02T16:00:23.434Z,0.90
2022-08-02T16:03:45.715Z,0.70
2022-08-02T16:07:08.200Z,0.70
2022-08-02T16:10:30.470Z,0.40
2022-08-02T16:13:55.688Z,0.60
2022-08-02T16:17:48.338Z,0.77
2022-08-02T16:21:00.280Z,1.65
2022-08-02T16:24:22.889Z,1.30
2022-08-02T16:28:06.533Z,2.40
2022-08-02T16:31:27.712Z,2.80
2022-08-02T16:35:07.561Z,2.72
2022-08-02T16:38:31.189Z,3.15
2022-08-02T16:41:53.397Z,3.50
2022-08-02T16:45:17.049Z,3.15
2022-08-02T16:48:51.288Z,4.40
2022-08-02T16:52:13.751Z,4.03
2022-08-02T16:55:36.464Z,3.63
2022-08-02T16:58:59.787Z,4.68
2022-08-02T17:02:25.652Z,4.65
2022-08-02T17:05:57.032Z,3.88
2022-08-02T17:10:03.638Z,3.70
2022-08-02T17:13:10.859Z,3.53
2022-08-02T17:16:34.084Z,4.22
2022-08-02T17:19:58.631Z,3.97
2022-08-02T17:23:22.807Z,3.30
2022-08-02T17:27:05.359Z,3.28
2022-08-02T17:30:27.699Z,3.25
2022-08-02T17:33:49.934Z,3.78
2022-08-02T17:37:12.291Z,3.33
2022-08-02T17:40:34.502Z,3.75
2022-08-02T17:43:56.727Z,3.20
2022-08-02T17:47:19.223Z,2.50
2022-08-02T17:50:41.854Z,1.88
2022-08-02T17:54:11.583Z,1.13
2022-08-02T17:57:57.093Z,1.60
2022-08-02T18:01:23.888Z,1.00
2022-08-02T18:04:46.648Z,1.20
2022-08-02T18:08:14.638Z,1.00
2022-08-02T18:11:52.577Z,1.00
2022-08-02T18:15:15.614Z,1.25
2022-08-02T18:18:37.895Z,0.93
2022-08-02T18:22:03.051Z,1.13
2022-08-02T18:25:37.124Z,0.95
2022-08-02T18:29:09.920Z,0.70
2022-08-02T18:36:24.411Z,2.67
2022-08-02T18:39:51.325Z,0.77
2022-08-02T18:43:14.491Z,0.95
2022-08-02T18:46:37.289Z,1.35
2022-08-02T18:50:01.209Z,7.00
2022-08-02T18:53:28.062Z,6.75
2022-08-02T18:58:18.552Z,9.65
2022-08-02T19:00:47.955Z,5.50
2022-08-02T19:04:14.066Z,3.38
2022-08-02T19:07:50.470Z,2.30
2022-08-02T19:11:13.494Z,1.30
2022-08-02T19:14:35.765Z,0.95
2022-08-02T19:17:58.211Z,0.73
2022-08-02T19:22:17.740Z,0.50
2022-08-02T19:25:03.424Z,0.70
2022-08-02T19:28:28.022Z,0.75
2022-08-02T19:32:00.226Z,0.60
2022-08-02T19:35:34.374Z,0.60
2022-08-02T19:38:56.987Z,0.30
2022-08-02T19:42:19.517Z,0.65
2022-08-02T19:45:50.369Z,0.65
2022-08-02T19:49:20.258Z,0.50
2022-08-02T19:52:55.305Z,0.60
2022-08-02T20:00:05.471Z,0.70
2022-08-02T20:07:54.469Z,1.98
2022-08-02T20:11:04.421Z,2.30
2022-08-02T20:14:28.030Z,0.68
2022-08-02T20:17:50.474Z,0.50
2022-08-02T20:21:34.346Z,1.25
2022-08-02T20:24:54.842Z,0.25
2022-08-02T20:28:17.405Z,0.57
2022-08-02T20:31:44.095Z,0.55
2022-08-02T20:35:06.976Z,0.50
2022-08-02T20:38:30.818Z,0.40
2022-08-02T20:41:53.146Z,0.40
2022-08-02T20:45:21.849Z,0.50
2022-08-02T20:48:44.997Z,0.30
2022-08-02T20:52:23.902Z,0.45
2022-08-02T20:55:51.090Z,0.55
2022-08-02T20:59:15.952Z,0.20
2022-08-02T21:02:38.871Z,0.30
2022-08-02T21:06:01.337Z,0.25
2022-08-02T21:09:53.723Z,0.60
2022-08-02T21:13:18.859Z,0.28
2022-08-02T21:16:41.331Z,0.50
2022-08-02T21:20:04.350Z,0.90
2022-08-02T21:23:28.070Z,0.50
2022-08-02T21:30:15.296Z,0.55
2022-08-02T21:33:56.922Z,0.52
2022-08-02T21:37:20.515Z,0.93
2022-08-02T21:40:42.763Z,0.60
2022-08-02T21:44:08.556Z,0.82
2022-08-02T21:47:30.865Z,1.67
2022-08-02T21:50:53.118Z,0.80
2022-08-02T21:54:21.304Z,0.90
2022-08-02T21:57:43.973Z,1.35
2022-08-02T22:01:06.467Z,1.08
2022-08-02T22:04:28.840Z,0.82
2022-08-02T22:07:51.945Z,1.38
2022-08-02T22:11:17.066Z,0.85
2022-08-02T22:14:56.865Z,1.00
2022-08-02T22:18:29.308Z,1.00
2022-08-02T22:21:55.567Z,0.95
2022-08-02T22:25:26.879Z,1.33
2022-08-02T22:28:59.695Z,0.80
2022-08-02T22:32:40.962Z,1.20
2022-08-02T22:36:04.592Z,0.80
2022-08-02T22:39:28.564Z,0.82
2022-08-02T22:42:51.187Z,0.80
2022-08-02T22:46:15.581Z,1.50
2022-08-02T22:49:52.876Z,0.88
2022-08-02T22:53:18.324Z,0.95
2022-08-02T22:56:46.955Z,0.77
2022-08-02T22:58:44.537Z,1.30
2022-08-02T22:58:54.018Z,0.50
2022-08-02T22:58:54.317Z,1.50
2022-08-02T23:00:10.046Z,0.80
2022-08-02T23:03:32.544Z,1.30
2022-08-02T23:06:54.815Z,0.90
2022-08-02T23:10:17.062Z,1.10
2022-08-02T23:13:39.268Z,1.45
2022-08-02T23:17:20.307Z,0.90
2022-08-02T23:20:42.503Z,1.38
2022-08-02T23:24:04.937Z,0.60
2022-08-02T23:27:27.386Z,1.00
2022-08-02T23:30:49.671Z,0.77
2022-08-02T23:34:11.895Z,0.68
2022-08-02T23:37:59.860Z,0.70
2022-08-02T23:41:16.477Z,0.80
2022-08-02T23:44:38.725Z,0.85
2022-08-02T23:48:00.858Z,0.70
2022-08-02T23:51:23.129Z,0.77
2022-08-02T23:54:45.326Z,0.68
2022-08-02T23:58:08.519Z,0.65
